Time;durP1;ratioP1;P1;durP2;ratioP2;P2;SDS_P1;SDS_P2;PMS_P1;PMS_P2;Temp;Humidity;BMP_temperature;BMP_pressure;BME280_temperature;BME280_humidity;BME280_pressure;Samples;Min_cycle;Max_cycle;Signal;HPM_P1;HPM_P2
2021/06/06 00:00:55;;;;;;;5.80;5.20;;;;;;;21.27;65.43;98265.16;8413451;28;20227;-88
2021/06/06 00:04:58;;;;;;;5.83;4.87;;;;;;;21.27;65.98;98273.03;8414885;28;20227;-88
2021/06/06 00:09:02;;;;;;;5.67;4.90;;;;;;;21.28;65.70;98270.28;8414952;28;20375;-88
2021/06/06 00:13:04;;;;;;;6.13;5.07;;;;;;;21.19;65.88;98267.56;8415056;28;20211;-88
2021/06/06 00:17:10;;;;;;;6.27;5.33;;;;;;;21.24;66.04;98265.38;8422186;28;20492;-88
2021/06/06 00:21:13;;;;;;;7.23;6.10;;;;;;;21.23;65.94;98274.28;8429854;28;20239;-87
2021/06/06 00:25:16;;;;;;;6.10;5.50;;;;;;;21.21;66.05;98270.91;8421116;28;20497;-89
2021/06/06 00:29:18;;;;;;;5.90;5.30;;;;;;;21.17;65.94;98270.34;8420342;28;20236;-89
2021/06/06 00:33:22;;;;;;;5.43;4.70;;;;;;;21.22;66.19;98273.41;8419745;28;20200;-88
2021/06/06 00:37:24;;;;;;;7.80;5.53;;;;;;;21.18;66.44;98274.63;8420382;28;20200;-89
2021/06/06 00:41:28;;;;;;;6.07;5.47;;;;;;;21.17;66.27;98272.97;8419576;28;20230;-88
2021/06/06 00:45:32;;;;;;;7.10;5.50;;;;;;;21.16;66.15;98273.94;8419067;28;20206;-88
2021/06/06 00:49:37;;;;;;;6.10;5.50;;;;;;;21.17;66.21;98270.34;8419026;28;20245;-89
2021/06/06 00:53:43;;;;;;;6.37;5.33;;;;;;;21.12;66.21;98269.88;8418292;28;20509;-89
2021/06/06 00:57:46;;;;;;;7.30;5.90;;;;;;;21.14;66.39;98257.44;8418773;28;20199;-88
2021/06/06 01:01:49;;;;;;;6.23;5.33;;;;;;;21.12;66.73;98259.34;8417985;28;20230;-88
2021/06/06 01:05:56;;;;;;;8.33;5.53;;;;;;;21.03;66.75;98257.47;8417925;28;20363;-88
2021/06/06 01:09:58;;;;;;;6.60;5.13;;;;;;;21.09;66.50;98255.19;8418060;28;20203;-88
2021/06/06 01:14:05;;;;;;;7.00;5.20;;;;;;;21.09;66.46;98259.59;8417506;28;20212;-91
2021/06/06 01:18:12;;;;;;;8.10;5.23;;;;;;;21.11;66.32;98252.41;8418740;28;20202;-91
2021/06/06 01:22:32;;;;;;;5.57;5.07;;;;;;;21.15;66.05;98255.63;8418187;28;20530;-90
2021/06/06 01:26:41;;;;;;;6.57;5.97;;;;;;;21.00;66.66;98247.19;8417569;28;20205;-89
2021/06/06 01:30:45;;;;;;;6.77;5.97;;;;;;;21.18;66.14;98255.38;8417499;28;20204;-88
2021/06/06 01:35:00;;;;;;;7.17;5.73;;;;;;;21.19;66.05;98257.03;8417127;28;20247;-89
2021/06/06 01:39:06;;;;;;;6.53;5.93;;;;;;;21.13;66.13;98249.66;8417709;28;20560;-88
2021/06/06 01:43:12;;;;;;;6.67;6.07;;;;;;;21.12;66.24;98245.38;8417589;28;20214;-88
2021/06/06 01:47:17;;;;;;;7.70;6.17;;;;;;;21.11;66.54;98251.56;8417244;28;20386;-88
2021/06/06 01:51:23;;;;;;;9.20;6.47;;;;;;;21.15;66.23;98253.00;8416780;28;20492;-87
2021/06/06 01:55:28;;;;;;;7.90;6.60;;;;;;;20.97;66.71;98244.84;8417022;28;20232;-86
2021/06/06 01:59:34;;;;;;;10.03;6.83;;;;;;;21.11;66.26;98247.13;8416275;28;20330;-86
2021/06/06 02:03:36;;;;;;;8.40;6.77;;;;;;;21.01;66.72;98249.69;8416909;28;20213;-87
2021/06/06 02:07:39;;;;;;;10.80;7.30;;;;;;;20.96;66.47;98245.78;8418498;28;20236;-87
2021/06/06 02:11:45;;;;;;;10.43;7.93;;;;;;;20.88;66.85;98244.59;8416356;28;20226;-86
2021/06/06 02:15:51;;;;;;;9.03;7.43;;;;;;;21.01;66.44;98244.44;8416149;28;20521;-86
2021/06/06 02:19:54;;;;;;;10.43;8.30;;;;;;;20.79;67.48;98244.53;8416111;28;20236;-86
2021/06/06 02:23:57;;;;;;;8.73;7.90;;;;;;;20.81;67.27;98245.25;8415651;28;20206;-86
2021/06/06 02:28:07;;;;;;;8.93;7.70;;;;;;;20.87;66.89;98235.06;8415753;28;20222;-86
2021/06/06 02:32:16;;;;;;;9.80;8.27;;;;;;;20.80;67.08;98244.41;8415762;28;20204;-88
2021/06/06 02:36:20;;;;;;;10.13;8.20;;;;;;;20.73;67.47;98242.41;8415508;28;20268;-88
2021/06/06 02:40:27;;;;;;;8.70;7.90;;;;;;;20.78;67.21;98242.88;8415814;28;20233;-88
2021/06/06 02:44:33;;;;;;;9.30;7.63;;;;;;;20.83;66.96;98238.09;8415262;28;20222;-88
2021/06/06 02:48:41;;;;;;;9.37;8.40;;;;;;;20.88;66.50;98241.97;8414739;28;20322;-87
2021/06/06 02:52:45;;;;;;;9.07;8.17;;;;;;;20.82;66.68;98245.13;8414191;28;20520;-86
2021/06/06 02:56:50;;;;;;;9.80;8.80;;;;;;;20.81;66.95;98243.47;8414816;28;20205;-86
2021/06/06 03:00:57;;;;;;;9.43;8.43;;;;;;;20.87;66.47;98239.50;8414528;28;20238;-85
2021/06/06 03:05:01;;;;;;;10.07;8.33;;;;;;;20.86;66.63;98240.44;8414136;28;20419;-85
2021/06/06 03:09:04;;;;;;;11.20;9.00;;;;;;;20.74;66.97;98233.56;8414652;28;20185;-85
2021/06/06 03:13:12;;;;;;;8.90;8.00;;;;;;;20.81;66.70;98237.34;8414392;28;20211;-85
2021/06/06 03:17:16;;;;;;;9.23;8.30;;;;;;;20.80;67.18;98240.94;8414598;28;20186;-87
2021/06/06 03:21:23;;;;;;;9.30;8.00;;;;;;;20.83;66.53;98241.53;8414937;28;20409;-86
2021/06/06 03:25:33;;;;;;;8.87;8.07;;;;;;;20.79;66.54;98234.00;8414332;28;20211;-85
2021/06/06 03:29:44;;;;;;;10.30;8.50;;;;;;;20.73;66.93;98237.16;8414748;28;20218;-89
2021/06/06 03:33:50;;;;;;;9.77;8.70;;;;;;;20.79;66.37;98237.50;8416177;28;20484;-88
2021/06/06 03:37:53;;;;;;;9.53;8.73;;;;;;;20.75;66.51;98237.84;8416930;28;20203;-88
2021/06/06 03:41:59;;;;;;;10.83;9.37;;;;;;;20.58;67.17;98239.19;8416685;28;20534;-87
2021/06/06 03:46:01;;;;;;;10.07;8.77;;;;;;;20.59;67.11;98239.06;8420311;28;20206;-89
2021/06/06 03:50:05;;;;;;;9.90;8.87;;;;;;;20.66;66.87;98231.56;8414504;28;20206;-89
2021/06/06 03:54:11;;;;;;;10.27;9.07;;;;;;;20.76;66.51;98240.38;8415559;28;20198;-89
2021/06/06 03:58:14;;;;;;;11.30;9.30;;;;;;;20.67;67.53;98225.31;8415297;28;20210;-89
2021/06/06 04:02:16;;;;;;;9.90;8.90;;;;;;;20.67;67.54;98225.31;8415569;28;20230;-89
2021/06/06 04:06:19;;;;;;;10.73;9.43;;;;;;;20.73;67.35;98224.00;8415539;28;20537;-90
2021/06/06 04:10:23;;;;;;;10.97;9.53;;;;;;;20.74;67.10;98223.03;8415272;28;20217;-90
2021/06/06 04:14:25;;;;;;;10.50;9.50;;;;;;;20.61;67.88;98224.03;8415348;28;20206;-90
2021/06/06 04:18:30;;;;;;;10.17;9.13;;;;;;;20.61;67.70;98223.19;8415768;28;20203;-90
2021/06/06 04:22:32;;;;;;;13.13;9.27;;;;;;;20.53;68.16;98230.84;8421474;28;20227;-89
2021/06/06 04:26:36;;;;;;;9.73;8.73;;;;;;;20.68;67.51;98229.63;8416555;28;20206;-90
2021/06/06 04:30:39;;;;;;;11.27;9.37;;;;;;;20.66;67.59;98224.50;8417957;28;20208;-90
2021/06/06 04:34:42;;;;;;;9.70;8.67;;;;;;;20.73;67.77;98221.34;8416375;28;20200;-88
2021/06/06 04:38:44;;;;;;;9.57;7.87;;;;;;;20.75;67.53;98217.63;8413315;28;20294;-89
2021/06/06 04:42:48;;;;;;;11.20;9.30;;;;;;;20.67;68.30;98220.88;8415148;28;20235;-90
2021/06/06 04:46:50;;;;;;;10.43;9.33;;;;;;;20.73;67.82;98219.56;8414029;28;20206;-89
2021/06/06 04:50:53;;;;;;;10.53;9.10;;;;;;;20.66;67.96;98221.03;8415799;28;20285;-89
2021/06/06 04:54:55;;;;;;;9.40;8.37;;;;;;;20.62;68.05;98222.22;8414180;28;20199;-89
2021/06/06 04:58:59;;;;;;;9.43;8.27;;;;;;;20.68;67.85;98219.94;8413244;28;20203;-87
2021/06/06 05:03:02;;;;;;;12.17;8.90;;;;;;;20.65;68.25;98224.63;8415885;28;20231;-88
2021/06/06 05:07:05;;;;;;;11.37;8.13;;;;;;;20.70;67.82;98228.53;8422118;28;20237;-89
2021/06/06 05:11:08;;;;;;;9.73;8.77;;;;;;;20.63;67.84;98226.53;8422550;28;20473;-89
2021/06/06 05:15:12;;;;;;;11.80;8.27;;;;;;;20.46;67.91;98222.63;8418879;28;20216;-89
2021/06/06 05:19:15;;;;;;;8.97;7.83;;;;;;;20.56;67.71;98223.56;8415000;28;20276;-88
2021/06/06 05:23:19;;;;;;;9.40;8.47;;;;;;;20.51;68.17;98223.91;8417687;28;20292;-86
2021/06/06 05:27:21;;;;;;;8.40;7.50;;;;;;;20.63;67.92;98221.28;8417345;28;20374;-91
2021/06/06 05:31:25;;;;;;;9.47;7.77;;;;;;;20.69;67.70;98226.88;8418922;28;20212;-92
2021/06/06 05:35:29;;;;;;;10.10;7.90;;;;;;;20.70;67.69;98227.72;8418267;28;20200;-90
2021/06/06 05:39:32;;;;;;;8.00;7.20;;;;;;;20.65;68.24;98229.88;8419432;28;20212;-89
2021/06/06 05:43:34;;;;;;;9.60;8.67;;;;;;;20.66;67.84;98232.38;8418348;28;20239;-90
2021/06/06 05:47:38;;;;;;;9.33;8.37;;;;;;;20.62;68.16;98240.63;8417993;28;20206;-89
2021/06/06 05:51:40;;;;;;;11.00;9.33;;;;;;;20.67;67.67;98241.09;8418226;28;20210;-91
2021/06/06 05:55:44;;;;;;;11.13;9.67;;;;;;;20.68;67.99;98237.53;8417437;28;20364;-88
2021/06/06 05:59:46;;;;;;;10.77;9.77;;;;;;;20.73;68.04;98239.78;8417329;28;20201;-88
2021/06/06 06:03:50;;;;;;;11.50;9.97;;;;;;;20.82;67.61;98239.03;8417227;28;20206;-87
2021/06/06 06:07:53;;;;;;;13.50;9.00;;;;;;;20.97;67.63;98242.19;8416343;28;20238;-87
2021/06/06 06:11:55;;;;;;;12.80;10.50;;;;;;;20.99;67.77;98250.81;8416592;28;20235;-87
2021/06/06 06:15:58;;;;;;;10.23;9.13;;;;;;;21.17;67.55;98248.44;8415075;28;20276;-86
2021/06/06 06:20:05;;;;;;;11.37;9.50;;;;;;;21.09;67.27;98251.69;8416066;28;20249;-85
2021/06/06 06:24:09;;;;;;;13.10;9.60;;;;;;;21.21;66.88;98253.31;8415807;28;20268;-87
2021/06/06 06:28:12;;;;;;;9.70;8.80;;;;;;;21.41;66.78;98248.19;8415974;28;20195;-86
2021/06/06 06:32:15;;;;;;;9.83;8.93;;;;;;;21.42;66.78;98241.97;8414918;28;20540;-87
2021/06/06 06:36:23;;;;;;;8.73;7.50;;;;;;;21.54;65.83;98248.00;8415346;28;20243;-88
2021/06/06 06:40:26;;;;;;;9.57;8.57;;;;;;;21.47;65.90;98243.25;8415569;28;20245;-89
2021/06/06 06:44:28;;;;;;;8.80;8.03;;;;;;;21.53;66.27;98255.06;8415074;28;20197;-89
2021/06/06 06:48:31;;;;;;;9.30;8.30;;;;;;;21.53;65.72;98255.06;8398598;28;20198;-89
2021/06/06 06:52:37;;;;;;;9.80;8.90;;;;;;;21.48;65.04;98250.19;8416633;28;20528;-87
2021/06/06 06:56:39;;;;;;;9.30;8.33;;;;;;;21.41;65.64;98251.63;8416734;28;20202;-87
2021/06/06 07:00:43;;;;;;;12.33;8.17;;;;;;;21.55;65.50;98261.06;8417684;28;20234;-86
2021/06/06 07:04:45;;;;;;;9.07;8.10;;;;;;;21.53;66.11;98264.78;8416986;28;20213;-87
2021/06/06 07:08:49;;;;;;;9.43;8.17;;;;;;;21.55;65.88;98257.56;8417225;28;20393;-89
2021/06/06 07:12:52;;;;;;;10.20;9.10;;;;;;;21.62;66.25;98262.19;8419974;28;20198;-87
2021/06/06 07:16:54;;;;;;;9.70;8.80;;;;;;;21.61;65.56;98263.16;8416490;28;20193;-84
2021/06/06 07:20:59;;;;;;;9.50;8.50;;;;;;;21.75;65.83;98264.63;8415952;28;20218;-87
2021/06/06 07:25:04;;;;;;;10.07;7.67;;;;;;;21.62;65.46;98264.00;8411528;28;20198;-87
2021/06/06 07:29:09;;;;;;;8.30;7.47;;;;;;;21.64;65.30;98265.53;8414165;28;20198;-87
2021/06/06 07:33:12;;;;;;;9.20;7.70;;;;;;;21.58;65.38;98258.16;8414440;28;20210;-89
2021/06/06 07:37:15;;;;;;;10.67;7.47;;;;;;;21.63;65.48;98265.69;8417262;28;20192;-91
2021/06/06 07:41:20;;;;;;;10.43;8.10;;;;;;;21.66;65.00;98262.75;8417967;28;20219;-92
2021/06/06 07:45:24;;;;;;;7.53;6.80;;;;;;;21.62;64.83;98274.53;8414140;28;20206;-88
2021/06/06 07:49:27;;;;;;;7.63;6.97;;;;;;;21.65;65.07;98267.22;8413967;28;20202;-87
2021/06/06 07:53:29;;;;;;;8.07;7.37;;;;;;;21.66;64.87;98258.31;8413976;28;20206;-88
2021/06/06 07:57:33;;;;;;;8.50;6.70;;;;;;;21.64;64.95;98267.34;8413673;28;20208;-87
2021/06/06 08:01:36;;;;;;;8.37;7.13;;;;;;;21.58;65.14;98257.31;8412273;28;20419;-88
2021/06/06 08:05:40;;;;;;;8.00;7.20;;;;;;;21.63;64.77;98260.41;8413170;28;20297;-88
2021/06/06 08:09:44;;;;;;;7.70;6.97;;;;;;;21.58;65.16;98255.50;8414030;28;20518;-88
2021/06/06 08:13:50;;;;;;;9.40;7.00;;;;;;;21.60;65.35;98258.03;8414925;28;20286;-86
2021/06/06 08:17:53;;;;;;;7.60;6.90;;;;;;;21.71;64.70;98257.94;8412204;28;20201;-88
2021/06/06 08:21:56;;;;;;;8.63;7.60;;;;;;;21.55;65.76;98257.56;8414329;28;20249;-87
2021/06/06 08:25:59;;;;;;;10.17;8.03;;;;;;;21.50;66.88;98250.06;8413715;28;20202;-88
2021/06/06 08:30:04;;;;;;;7.90;7.10;;;;;;;21.41;67.46;98246.38;8412453;28;20195;-87
2021/06/06 08:34:07;;;;;;;8.03;7.20;;;;;;;21.61;66.33;98250.00;8412591;28;20202;-86
2021/06/06 08:38:10;;;;;;;8.43;7.63;;;;;;;21.68;66.59;98250.28;8416327;28;20221;-86
2021/06/06 08:42:18;;;;;;;7.13;6.43;;;;;;;21.92;66.00;98254.44;8421130;28;20314;-87
2021/06/06 08:46:24;;;;;;;7.30;6.70;;;;;;;22.18;65.08;98250.38;8418915;28;20203;-87
2021/06/06 08:50:30;;;;;;;8.10;7.30;;;;;;;21.95;65.10;98251.50;8418475;28;20201;-86
2021/06/06 08:54:37;;;;;;;7.43;6.73;;;;;;;22.14;64.71;98248.09;8418534;28;20206;-83
2021/06/06 08:58:45;;;;;;;8.53;5.30;;;;;;;22.39;62.85;98255.56;8422254;28;20233;-93
2021/06/06 09:02:50;;;;;;;9.30;5.53;;;;;;;22.41;61.84;98243.09;8428772;28;20237;-95
2021/06/06 09:06:54;;;;;;;7.87;5.03;;;;;;;22.36;61.46;98237.38;8428413;28;20390;-95
2021/06/06 09:10:59;;;;;;;6.30;5.30;;;;;;;22.34;62.02;98246.41;8420120;28;20201;-94
2021/06/06 09:15:02;;;;;;;6.13;5.63;;;;;;;22.34;62.17;98251.69;8408559;28;20191;-95
2021/06/06 09:19:09;;;;;;;6.80;5.63;;;;;;;22.29;61.78;98245.97;8427890;28;20197;-94
2021/06/06 09:23:15;;;;;;;6.70;5.87;;;;;;;22.26;61.53;98247.09;8435164;28;20223;-95
2021/06/06 09:27:24;;;;;;;7.17;5.90;;;;;;;22.39;61.93;98258.22;8426447;28;20489;-94
2021/06/06 09:31:28;;;;;;;5.90;5.30;;;;;;;22.42;62.33;98254.47;8419435;28;20194;-94
2021/06/06 09:35:34;;;;;;;7.80;6.67;;;;;;;22.27;63.73;98250.53;8415802;28;20461;-94
2021/06/06 09:39:42;;;;;;;8.67;6.87;;;;;;;22.48;63.10;98247.81;8405535;28;20269;-95
2021/06/06 09:44:01;;;;;;;8.13;6.83;;;;;;;22.61;62.39;98248.38;8409596;28;20218;-95
2021/06/06 09:48:08;;;;;;;8.57;6.83;;;;;;;22.77;62.75;98250.47;8417603;28;20209;-95
2021/06/06 09:52:17;;;;;;;6.77;6.10;;;;;;;22.87;61.72;98248.69;8425116;28;20195;-96
2021/06/06 09:56:24;;;;;;;8.97;6.60;;;;;;;22.88;62.04;98246.88;8424185;28;20198;-96
2021/06/06 10:00:36;;;;;;;6.87;6.23;;;;;;;22.95;61.74;98248.81;8418859;28;20529;-94
2021/06/06 10:04:40;;;;;;;6.30;5.27;;;;;;;22.99;61.35;98247.56;8415642;28;20386;-96
2021/06/06 10:08:56;;;;;;;4.57;4.10;;;;;;;23.03;61.85;98243.69;8418956;28;20223;-96
2021/06/06 10:13:01;;;;;;;5.63;4.43;;;;;;;23.19;61.33;98245.78;8422939;28;20226;-96
2021/06/06 10:17:07;;;;;;;4.20;3.80;;;;;;;23.26;59.99;98242.56;8418036;28;20191;-96
2021/06/06 10:21:14;;;;;;;7.30;3.90;;;;;;;23.33;60.20;98222.53;8430059;28;20225;-95
2021/06/06 10:25:22;;;;;;;4.60;3.27;;;;;;;23.80;60.00;98231.31;8421257;28;20205;-94
2021/06/06 10:29:27;;;;;;;4.40;4.00;;;;;;;24.42;57.86;98245.75;8402670;28;20277;-93
2021/06/06 10:33:33;;;;;;;4.87;4.47;;;;;;;24.93;57.07;98234.53;8403806;28;20201;-91
2021/06/06 10:37:36;;;;;;;5.30;4.80;;;;;;;24.66;58.17;98229.31;8415548;28;20195;-91
2021/06/06 10:41:49;;;;;;;5.80;4.80;;;;;;;24.50;57.12;98243.19;8417573;28;20234;-89
2021/06/06 10:45:59;;;;;;;4.93;4.53;;;;;;;24.10;57.58;98229.34;8419956;28;20213;-94
2021/06/06 10:50:11;;;;;;;3.73;3.43;;;;;;;24.89;55.94;98235.00;8433351;28;20205;-94
2021/06/06 10:54:30;;;;;;;3.50;3.20;;;;;;;25.20;58.01;98232.75;8420880;28;20472;-93
2021/06/06 10:58:54;;;;;;;5.13;3.33;;;;;;;24.71;55.11;98229.69;8402025;28;20223;-92
2021/06/06 11:03:00;;;;;;;3.93;3.63;;;;;;;24.44;56.14;98225.25;8399951;28;20223;-90
2021/06/06 11:07:09;;;;;;;4.37;3.20;;;;;;;24.27;57.16;98222.44;8415674;28;20231;-91
2021/06/06 11:11:21;;;;;;;4.60;4.20;;;;;;;24.05;58.18;98222.88;8417108;28;20188;-89
2021/06/06 11:15:35;;;;;;;4.23;3.80;;;;;;;23.73;58.10;98218.78;8419842;28;20274;-90
2021/06/06 11:19:38;;;;;;;4.77;4.20;;;;;;;23.76;58.20;98219.34;8406435;28;20198;-92
2021/06/06 11:23:42;;;;;;;4.20;3.80;;;;;;;23.88;57.56;98216.53;8404509;28;20222;-92
2021/06/06 11:27:54;;;;;;;4.17;3.77;;;;;;;24.04;56.80;98218.53;8416389;28;20191;-93
2021/06/06 11:32:08;;;;;;;4.90;4.30;;;;;;;24.09;57.07;98217.13;8417168;28;20206;-92
2021/06/06 11:36:12;;;;;;;5.20;3.80;;;;;;;24.14;57.11;98214.00;8388348;28;20225;-92
2021/06/06 11:40:36;;;;;;;5.10;4.60;;;;;;;24.10;56.90;98194.97;8415608;28;20206;-91
2021/06/06 11:44:44;;;;;;;4.87;4.47;;;;;;;24.19;56.30;98185.31;8413250;28;20222;-94
2021/06/06 11:48:56;;;;;;;4.73;4.33;;;;;;;24.20;57.55;98184.34;8421541;28;20202;-96
2021/06/06 11:53:02;;;;;;;5.33;4.83;;;;;;;24.37;56.11;98188.00;8404200;28;20199;-93
2021/06/06 11:57:09;;;;;;;5.60;5.10;;;;;;;24.35;56.32;98193.44;8414641;28;20199;-90
2021/06/06 12:01:16;;;;;;;6.13;5.60;;;;;;;24.59;55.37;98199.97;8415185;28;20217;-93
2021/06/06 12:05:23;;;;;;;6.30;5.40;;;;;;;24.50;55.32;98201.69;8415411;28;20279;-89
2021/06/06 12:09:36;;;;;;;5.83;5.33;;;;;;;24.45;55.27;98201.28;8415361;28;20203;-93
2021/06/06 12:13:40;;;;;;;6.73;5.63;;;;;;;24.40;56.01;98198.25;8419310;28;20206;-90
2021/06/06 12:17:42;;;;;;;6.93;6.33;;;;;;;24.28;56.70;98191.53;8420531;28;20214;-88
2021/06/06 12:21:49;;;;;;;10.67;5.60;;;;;;;25.34;53.87;98173.06;8422474;28;20322;-94
2021/06/06 12:25:51;;;;;;;8.00;6.67;;;;;;;24.63;55.01;98203.16;8421913;28;20209;-88
2021/06/06 12:29:57;;;;;;;5.03;4.63;;;;;;;23.94;56.16;98210.66;8423127;28;20207;-90
2021/06/06 12:34:12;;;;;;;4.37;3.60;;;;;;;23.38;57.10;98212.34;8420031;28;20302;-89
2021/06/06 12:38:17;;;;;;;4.43;4.03;;;;;;;23.09;58.46;98221.16;8420432;28;20203;-90
2021/06/06 12:42:21;;;;;;;5.43;4.83;;;;;;;22.90;59.88;98229.91;8420380;28;20226;-92
2021/06/06 12:46:25;;;;;;;10.77;5.27;;;;;;;22.82;60.62;98222.69;8420918;28;20199;-92
2021/06/06 12:50:29;;;;;;;11.00;5.87;;;;;;;22.80;61.85;98227.25;8422435;28;20218;-94
2021/06/06 12:54:39;;;;;;;12.87;6.33;;;;;;;22.59;62.46;98221.28;8423362;28;20198;-95
2021/06/06 12:58:43;;;;;;;13.23;7.27;;;;;;;22.45;63.73;98226.00;8424090;28;20206;-94
2021/06/06 13:02:46;;;;;;;15.30;7.47;;;;;;;22.44;63.95;98221.69;8424978;28;20226;-96
2021/06/06 13:07:21;;;;;;;17.10;6.60;;;;;;;22.44;64.89;98210.31;8427517;28;20266;-92
2021/06/06 13:11:34;;;;;;;12.17;6.97;;;;;;;22.47;64.13;98215.31;8423414;28;20206;-90
2021/06/06 13:15:40;;;;;;;8.40;7.00;;;;;;;22.56;64.40;98214.50;8420463;28;20230;-91
2021/06/06 13:19:43;;;;;;;9.43;7.30;;;;;;;22.47;65.29;98204.75;8419992;28;20209;-91
2021/06/06 13:23:46;;;;;;;8.63;7.27;;;;;;;22.39;65.00;98192.25;8418351;28;20303;-91
2021/06/06 13:27:49;;;;;;;9.00;7.47;;;;;;;22.48;64.87;98198.50;8419701;28;20229;-91
2021/06/06 13:31:59;;;;;;;8.23;7.27;;;;;;;22.47;64.68;98202.13;8405008;28;20210;-91
2021/06/06 13:36:03;;;;;;;13.23;8.37;;;;;;;22.30;65.38;98203.63;8422154;28;20199;-92
2021/06/06 13:40:07;;;;;;;12.67;8.53;;;;;;;22.41;65.30;98202.69;8424330;28;20206;-91
2021/06/06 13:44:11;;;;;;;11.17;8.30;;;;;;;22.46;65.48;98203.09;8422725;28;20226;-91
2021/06/06 13:48:15;;;;;;;9.20;8.20;;;;;;;22.56;65.37;98205.72;8404072;28;20489;-92
2021/06/06 13:52:18;;;;;;;10.20;8.47;;;;;;;22.61;65.53;98214.06;8420775;28;20371;-93
2021/06/06 13:56:21;;;;;;;11.10;8.67;;;;;;;22.48;65.43;98208.22;8421393;28;20221;-94
2021/06/06 14:00:26;;;;;;;14.03;8.50;;;;;;;22.49;65.01;98205.47;8421644;28;20205;-93
2021/06/06 14:04:29;;;;;;;10.43;8.63;;;;;;;22.64;65.01;98208.53;8422719;28;20223;-94
2021/06/06 14:08:32;;;;;;;11.83;8.50;;;;;;;22.72;64.99;98224.50;8423410;28;20243;-94
2021/06/06 14:12:37;;;;;;;15.67;8.80;;;;;;;22.65;65.80;98221.56;8422854;28;20203;-94
2021/06/06 14:16:41;;;;;;;10.20;8.20;;;;;;;22.69;65.09;98227.41;8424915;28;20265;-94
2021/06/06 14:20:43;;;;;;;9.43;8.07;;;;;;;22.71;65.87;98235.19;8435088;28;20203;-93
2021/06/06 14:24:46;;;;;;;10.87;9.70;;;;;;;22.74;65.94;98235.75;8430901;28;20230;-94
2021/06/06 14:28:49;;;;;;;11.10;7.10;;;;;;;22.87;64.89;98232.84;8419857;28;20364;-93
2021/06/06 14:32:53;;;;;;;11.23;7.47;;;;;;;22.97;63.98;98235.47;8420392;28;20476;-94
2021/06/06 14:36:55;;;;;;;8.50;4.30;;;;;;;23.09;63.99;98228.25;8419854;28;20203;-95
2021/06/06 14:40:59;;;;;;;3.90;3.50;;;;;;;23.16;63.67;98230.19;8419300;28;20213;-95
2021/06/06 14:45:01;;;;;;;4.03;3.57;;;;;;;23.15;63.19;98232.97;8418991;28;20244;-95
2021/06/06 14:49:06;;;;;;;5.77;3.37;;;;;;;23.18;63.33;98237.97;8402489;28;20203;-91
2021/06/06 14:53:09;;;;;;;3.97;3.40;;;;;;;22.99;63.14;98239.63;8419373;28;20200;-95
2021/06/06 14:57:15;;;;;;;6.03;3.23;;;;;;;23.10;63.03;98237.88;8420928;28;20203;-93
2021/06/06 15:01:20;;;;;;;5.87;3.13;;;;;;;23.01;62.16;98226.28;8427420;28;20203;-96
2021/06/06 15:05:26;;;;;;;3.73;3.00;;;;;;;23.05;62.42;98243.56;8423404;28;20234;-96
2021/06/06 15:09:30;;;;;;;4.53;3.30;;;;;;;23.08;62.12;98243.28;8425249;28;20187;-96
2021/06/06 15:13:35;;;;;;;3.63;3.33;;;;;;;23.10;62.25;98245.78;8402974;28;20248;-93
2021/06/06 15:17:39;;;;;;;3.60;3.30;;;;;;;23.24;61.89;98242.69;8431015;28;20294;-96
2021/06/06 15:21:45;;;;;;;3.93;3.50;;;;;;;23.18;61.89;98235.34;8430766;28;20203;-96
2021/06/06 15:25:48;;;;;;;4.07;3.67;;;;;;;23.27;61.93;98221.28;8402615;28;20222;-96
2021/06/06 15:29:53;;;;;;;7.37;3.53;;;;;;;23.31;61.74;98216.56;8429168;28;20188;-96
2021/06/06 15:33:57;;;;;;;4.30;3.30;;;;;;;23.25;61.41;98212.69;8426182;28;20475;-96
2021/06/06 15:38:02;;;;;;;4.87;3.43;;;;;;;23.39;61.58;98206.91;8404644;28;20282;-96
2021/06/06 15:42:06;;;;;;;6.83;4.10;;;;;;;23.50;61.73;98218.31;8410527;28;20213;-94
2021/06/06 15:46:12;;;;;;;8.47;4.17;;;;;;;23.46;62.75;98215.13;8420121;28;20493;-95
2021/06/06 15:50:18;;;;;;;10.70;4.23;;;;;;;23.36;62.09;98222.22;8402718;28;20195;-94
2021/06/06 15:54:25;;;;;;;7.33;4.20;;;;;;;23.13;62.26;98206.72;8427875;28;20202;-93
2021/06/06 15:58:27;;;;;;;6.20;4.43;;;;;;;22.90;63.02;98213.22;8419917;28;20203;-93
2021/06/06 16:02:30;;;;;;;7.10;4.30;;;;;;;22.74;63.36;98217.28;8419378;28;20379;-94
2021/06/06 16:06:37;;;;;;;28.83;17.33;;;;;;;22.73;63.53;98215.63;8422532;28;20234;-95
2021/06/06 16:10:42;;;;;;;19.93;11.43;;;;;;;22.52;64.00;98217.53;8405797;28;20323;-92
2021/06/06 16:14:45;;;;;;;14.97;7.30;;;;;;;22.63;63.36;98209.47;8399362;28;20387;-96
2021/06/06 16:18:48;;;;;;;10.53;6.40;;;;;;;22.55;63.15;98214.63;8382675;28;20513;-94
2021/06/06 16:22:51;;;;;;;4.33;3.93;;;;;;;22.49;62.77;98215.19;8411662;28;20245;-94
2021/06/06 16:26:55;;;;;;;7.23;6.50;;;;;;;22.55;63.73;98214.63;8416843;28;20199;-95
2021/06/06 16:30:58;;;;;;;5.10;4.60;;;;;;;22.52;62.49;98210.44;8416464;28;20201;-94
2021/06/06 16:35:01;;;;;;;8.37;4.57;;;;;;;22.51;62.97;98210.59;8417519;28;20198;-91
2021/06/06 16:39:05;;;;;;;7.50;4.83;;;;;;;22.48;63.83;98210.88;8419268;28;20209;-94
2021/06/06 16:43:10;;;;;;;4.97;4.50;;;;;;;22.50;63.45;98214.19;8419564;28;20234;-93
2021/06/06 16:47:12;;;;;;;5.80;4.70;;;;;;;22.38;63.80;98214.31;8417627;28;20195;-91
2021/06/06 16:51:16;;;;;;;5.20;4.70;;;;;;;22.50;63.68;98215.03;8416458;28;20205;-88
2021/06/06 16:55:23;;;;;;;5.07;4.43;;;;;;;22.50;63.46;98211.56;8417062;28;20192;-89
2021/06/06 16:59:27;;;;;;;5.13;4.70;;;;;;;22.52;63.77;98218.34;8416202;28;20205;-89
2021/06/06 17:03:30;;;;;;;5.97;5.17;;;;;;;22.51;63.85;98214.06;8420408;28;20223;-88
2021/06/06 17:07:33;;;;;;;5.40;4.90;;;;;;;22.55;63.68;98214.63;8423409;28;20231;-89
2021/06/06 17:11:35;;;;;;;6.60;5.00;;;;;;;22.51;63.99;98211.44;8421708;28;20195;-86
2021/06/06 17:15:51;;;;;;;6.80;5.20;;;;;;;22.45;63.97;98206.72;8420003;28;20199;-87
2021/06/06 17:19:57;;;;;;;11.67;7.50;;;;;;;22.47;63.96;98211.84;8421732;28;20258;-93
2021/06/06 17:24:00;;;;;;;19.47;11.03;;;;;;;22.29;64.68;98201.94;8425050;28;20218;-90
2021/06/06 17:28:04;;;;;;;18.60;12.83;;;;;;;22.29;64.59;98209.84;8388156;28;20217;-89
2021/06/06 17:32:09;;;;;;;17.97;9.70;;;;;;;22.31;64.64;98205.28;8386645;28;20210;-89
2021/06/06 17:36:11;;;;;;;16.37;9.23;;;;;;;22.18;64.69;98210.78;8400301;28;20501;-88
2021/06/06 17:40:15;;;;;;;8.47;7.67;;;;;;;22.26;64.84;98204.88;8419936;28;20203;-88
2021/06/06 17:44:18;;;;;;;16.07;10.60;;;;;;;22.16;65.46;98215.38;8420159;28;20231;-89
2021/06/06 17:48:23;;;;;;;8.10;6.87;;;;;;;22.20;64.82;98208.00;8420405;28;20210;-88
2021/06/06 17:52:25;;;;;;;10.30;7.07;;;;;;;22.13;65.25;98206.91;8423907;28;20212;-91
2021/06/06 17:56:28;;;;;;;10.67;7.30;;;;;;;22.19;64.72;98208.97;8420319;28;20387;-91
2021/06/06 18:00:30;;;;;;;6.30;5.70;;;;;;;22.11;65.15;98209.66;8420244;28;20232;-92
2021/06/06 18:04:38;;;;;;;7.70;5.70;;;;;;;22.13;65.08;98214.81;8418666;28;20253;-88
2021/06/06 18:08:41;;;;;;;8.80;5.13;;;;;;;22.04;65.29;98225.16;8417272;28;20229;-91
2021/06/06 18:12:43;;;;;;;6.33;5.20;;;;;;;22.06;65.09;98227.69;8420279;28;20207;-89
2021/06/06 18:16:46;;;;;;;7.67;4.53;;;;;;;22.15;64.69;98228.69;8420854;28;20205;-83
2021/06/06 18:20:51;;;;;;;6.70;4.77;;;;;;;21.93;65.62;98224.44;8417257;28;20199;-83
2021/06/06 18:24:54;;;;;;;9.63;4.50;;;;;;;21.99;65.22;98231.81;8416668;28;20220;-84
2021/06/06 18:28:57;;;;;;;6.77;4.30;;;;;;;21.99;65.30;98230.03;8416051;28;20243;-84
2021/06/06 18:32:59;;;;;;;6.47;4.30;;;;;;;21.73;66.32;98234.91;8418090;28;20222;-86
2021/06/06 18:37:03;;;;;;;5.73;4.00;;;;;;;21.65;66.42;98234.75;8414764;28;20191;-85
2021/06/06 18:41:06;;;;;;;10.93;4.13;;;;;;;21.53;66.89;98238.41;8414992;28;20194;-85
2021/06/06 18:45:11;;;;;;;4.87;4.37;;;;;;;21.53;66.71;98233.97;8412196;28;20246;-85
2021/06/06 18:49:13;;;;;;;5.07;3.97;;;;;;;21.56;66.72;98239.00;8415126;28;20403;-85
2021/06/06 18:53:18;;;;;;;4.83;4.10;;;;;;;21.53;67.16;98241.88;8415115;28;20198;-85
2021/06/06 18:57:21;;;;;;;4.90;3.67;;;;;;;21.53;66.60;98247.16;8414714;28;20196;-85
2021/06/06 19:01:25;;;;;;;5.27;4.10;;;;;;;21.48;66.67;98246.72;8414138;28;20386;-85
2021/06/06 19:05:29;;;;;;;4.77;4.20;;;;;;;21.39;67.45;98248.28;8414285;28;20560;-85
2021/06/06 19:09:33;;;;;;;5.57;4.40;;;;;;;21.41;67.14;98250.81;8412335;28;20369;-85